Washington Island, Wisconsin
Current Conditions -  °F | °C
As of 12:35 PM on Sunday 21 Dec 2014 (Local Time) from KESC Reporting Station
Overcast Overcast  
Wind Chill: 30°   Ceiling: 1400
Heat Index: 36°   Visibility: 6mi
Dew Point: 30°   Wind: 7mph
Humidity: 81%   Direction: 170°S
Pressure: 30.05"   Gusts: NA
Location:  45.36°N, 86.93°W
Report Text: KESC 211835Z AUTO 17006KT 6SM OVC014 02/M01 A3005 RMK AO1
Loading
Personal Weather Stations






























Interactive Weather Map New forecast layout! Learn more

10-Day Weather Forecast

Advertisements
Track Severe Weather on mobile